Impacts METAR Board INFO
IDs:

KSTL - St Louis/Lambert Int, MO, US

Updated at: 1812 UTC 23 Jan 2018
Potential Impact None Slight Moderate High
Time23/06Z 23/07Z 23/08Z 23/09Z 23/10Z 23/11Z 23/12Z 23/13Z 23/14Z 23/15Z 23/16Z 23/17Z 23/18Z
VIS7 8 9 5 9 8 9 9 10 10 10 10 10
CIG26 16 15 10 13 17 15 16 16 18 19 22 24
CoverOVCOVCOVCOVCOVCOVCOVCOVCOVCOVCOVCOVCOVC
FltCatMVFRMVFRMVFRMVFRMVFRMVFRMVFRMVFRMVFRMVFRMVFRMVFRMVFR
WX-SN-SN-SN-DZ -SN BR-SN-SN---SN----------
WDir250240250250270280280280290280290290300
WSpd19 18 19 16 17 18 14 17 17 15 16 17 12
WGst24 -- -- -- 25 -- 22 23 -- 21 22 29 --
Raw hourly METARs
KSTL 230551Z 25019G24KT 7SM -SN OVC026 02/M01 A2964 RMK AO2 PK WND 25031/0457 SNB15 SLP036 P0000 60000 T00221011 10078 20022 401670022 51013
KSTL 230651Z 24018KT 8SM -SN OVC016 02/00 A2965 RMK AO2 SLP043 P0001 T00170000
KSTL 230751Z 25019KT 9SM -SN SCT011 OVC015 02/01 A2968 RMK AO2 PK WND 25028/0717 SLP053 P0000 T00220006
KSTL 230851Z 25016KT 5SM -DZSN BR BKN010 OVC014 02/01 A2973 RMK AO2 DZB43 SLP071 P0000 60001 T00170011 53031
KSTL 230951Z 27017G25KT 9SM -SN OVC013 02/01 A2976 RMK AO2 PK WND 26026/0940 DZE47 SLP083 P0000 T00170006
KSTL 231051Z 28018KT 8SM -SN BKN017 OVC025 02/01 A2980 RMK AO2 PK WND 28027/1011 SLP097 P0000 T00170006
KSTL 231151Z 28014G22KT 9SM OVC015 02/00 A2985 RMK AO2 DZB1053E40SNE48 SLP112 P0000 60001 70001 T00170000 10022 20017 51027
KSTL 231251Z 28017G23KT 9SM -SN OVC016 02/M01 A2989 RMK AO2 PK WND 28027/1232 SNB38 SLP126 P0000 T00171006
KSTL 231351Z 29017KT 10SM OVC016 02/M01 A2992 RMK AO2 SNE04 SLP138 P0000 T00171011
KSTL 231451Z 28015G21KT 10SM OVC018 02/M01 A2995 RMK AO2 PK WND 28030/1417 DZB03E36 SLP150 P0000 60000 T00171011 51036
KSTL 231551Z 29016G22KT 10SM OVC019 01/M02 A3001 RMK AO2 PK WND 28028/1526 SLP170 T00111017
KSTL 231651Z 29017G29KT 10SM OVC022 01/M03 A3005 RMK AO2 PK WND 28029/1645 SLP182 T00111028
KSTL 231751Z 30012KT 10SM OVC024 02/M03 A3006 RMK AO2 SLP186 60000 T00171028 10017 20011 51034